Time;durP1;ratioP1;P1;durP2;ratioP2;P2;SDS_P1;SDS_P2;PMS_P1;PMS_P2;Temp;Humidity;BMP_temperature;BMP_pressure;BME280_temperature;BME280_humidity;BME280_pressure;Samples;Min_cycle;Max_cycle;Signal;HPM_P1;HPM_P2
2022/09/07 00:00:35;;;;;;;5.15;2.20;;;;;;;8.63;72.94;99408.25;4967254;28;20050;-45
2022/09/07 00:03:01;;;;;;;3.38;2.10;;;;;;;8.57;72.80;99410.19;4967838;28;20129;-42
2022/09/07 00:05:28;;;;;;;3.30;1.92;;;;;;;8.41;72.89;99381.28;4968541;28;20408;-45
2022/09/07 00:07:54;;;;;;;3.92;1.90;;;;;;;8.58;72.74;99402.38;4950347;28;20117;-44
2022/09/07 00:10:22;;;;;;;4.07;2.20;;;;;;;8.49;73.24;99407.81;4967935;28;20038;-45
2022/09/07 00:12:48;;;;;;;3.85;2.20;;;;;;;8.26;73.31;99364.44;4967923;28;20044;-42
2022/09/07 00:15:15;;;;;;;3.20;2.00;;;;;;;8.40;73.18;99380.44;4951640;28;20133;-43
2022/09/07 00:17:41;;;;;;;3.05;1.90;;;;;;;8.55;73.05;99394.66;4966244;28;20046;-43
2022/09/07 00:20:08;;;;;;;3.35;2.13;;;;;;;8.60;73.23;99404.88;4970481;28;20511;-44
2022/09/07 00:22:34;;;;;;;4.10;1.90;;;;;;;8.61;73.08;99396.22;4972285;28;20065;-45
2022/09/07 00:25:00;;;;;;;3.28;2.10;;;;;;;8.59;73.00;99385.91;4972309;28;20511;-45
2022/09/07 00:27:26;;;;;;;3.50;1.90;;;;;;;8.56;73.08;99380.81;4971598;28;20888;-46
2022/09/07 00:29:52;;;;;;;2.72;1.80;;;;;;;8.58;72.78;99396.34;4972332;28;20530;-43
2022/09/07 00:32:18;;;;;;;3.03;1.52;;;;;;;8.51;72.99;99387.88;4972351;28;20046;-44
2022/09/07 00:34:44;;;;;;;4.43;2.35;;;;;;;8.40;73.48;99393.41;4970438;28;20042;-42
2022/09/07 00:37:10;;;;;;;4.50;2.45;;;;;;;8.46;73.75;99390.63;4951312;28;20054;-43
2022/09/07 00:39:36;;;;;;;3.20;1.60;;;;;;;8.50;73.29;99392.22;4970341;28;20077;-46
2022/09/07 00:42:02;;;;;;;3.97;2.20;;;;;;;8.49;73.32;99394.84;4969274;28;20039;-43
2022/09/07 00:45:01;;;;;;;3.25;2.05;;;;;;;8.55;73.29;99386.91;4971146;28;20054;-44
2022/09/07 00:47:58;;;;;;;3.13;2.03;;;;;;;8.50;73.07;99381.88;4950592;28;20151;-42
2022/09/07 00:50:35;;;;;;;2.80;2.13;;;;;;;8.47;73.34;99375.94;4965703;28;20590;-46
2022/09/07 00:53:05;;;;;;;3.40;2.03;;;;;;;8.47;73.16;99371.59;4949325;28;20479;-43
2022/09/07 00:55:31;;;;;;;5.05;1.92;;;;;;;8.45;73.54;99363.03;4965880;28;20050;-47
2022/09/07 00:57:58;;;;;;;3.55;2.25;;;;;;;8.38;73.68;99368.41;4953159;28;20678;-44
2022/09/07 01:00:24;;;;;;;4.18;2.15;;;;;;;8.35;73.91;99379.75;4953764;28;20062;-45
2022/09/07 01:02:52;;;;;;;4.97;1.85;;;;;;;8.38;73.64;99374.44;4970760;28;20046;-44
2022/09/07 01:05:29;;;;;;;3.30;2.17;;;;;;;8.33;74.06;99384.09;4971591;28;20073;-41
2022/09/07 01:07:56;;;;;;;3.38;2.40;;;;;;;8.33;73.98;99373.75;4969706;28;20065;-42
2022/09/07 01:10:30;;;;;;;3.15;2.10;;;;;;;8.37;74.01;99377.94;4971907;28;20046;-50
2022/09/07 01:12:57;;;;;;;3.08;2.28;;;;;;;8.25;74.29;99375.69;4969207;28;20137;-42
2022/09/07 01:15:30;;;;;;;3.47;2.20;;;;;;;8.07;74.70;99355.50;4971641;28;20091;-42
2022/09/07 01:18:05;;;;;;;3.67;1.90;;;;;;;8.23;74.86;99371.44;4970264;28;20113;-42
2022/09/07 01:20:34;;;;;;;3.47;2.10;;;;;;;8.22;74.91;99372.34;4970654;28;20050;-44
2022/09/07 01:23:15;;;;;;;5.20;2.13;;;;;;;8.21;74.91;99362.91;4970537;28;20157;-43
2022/09/07 01:26:05;;;;;;;5.07;2.75;;;;;;;8.07;75.53;99353.78;4970226;28;20101;-47
2022/09/07 01:28:33;;;;;;;3.25;1.92;;;;;;;8.03;75.88;99352.19;4961631;28;20126;-44
2022/09/07 01:31:24;;;;;;;3.05;1.98;;;;;;;7.93;76.39;99355.94;4969363;28;20093;-43
2022/09/07 01:34:06;;;;;;;3.03;2.22;;;;;;;7.94;76.23;99351.59;4966917;28;20129;-41
2022/09/07 01:36:50;;;;;;;2.75;2.10;;;;;;;7.84;76.63;99353.63;4940806;28;20053;-42
2022/09/07 01:39:16;;;;;;;3.75;2.00;;;;;;;7.65;76.95;99334.31;4968532;28;20046;-45
2022/09/07 01:41:42;;;;;;;3.70;1.77;;;;;;;7.68;77.57;99348.91;4969621;28;20054;-43
2022/09/07 01:44:35;;;;;;;3.67;1.90;;;;;;;7.66;77.83;99346.34;4970217;28;20035;-42
2022/09/07 01:47:06;;;;;;;3.50;2.10;;;;;;;7.66;77.67;99341.19;4969015;28;20059;-42
2022/09/07 01:49:41;;;;;;;4.78;2.20;;;;;;;7.51;78.37;99326.94;4969225;28;20041;-44
2022/09/07 01:52:12;;;;;;;6.18;2.10;;;;;;;7.55;78.48;99309.59;4968528;28;20053;-44
2022/09/07 01:54:44;;;;;;;3.53;2.10;;;;;;;7.71;78.26;99343.63;4942835;28;20423;-45
2022/09/07 01:57:14;;;;;;;2.67;1.65;;;;;;;7.71;78.54;99341.03;4970976;28;20051;-42
2022/09/07 01:59:47;;;;;;;3.42;2.25;;;;;;;7.70;78.52;99335.03;4949986;28;20066;-47
2022/09/07 02:02:17;;;;;;;9.18;2.40;;;;;;;7.74;78.86;99340.97;4950575;28;20050;-42
2022/09/07 02:04:53;;;;;;;3.08;1.95;;;;;;;7.74;78.79;99330.63;4982209;28;20509;-43
2022/09/07 02:07:56;;;;;;;3.72;2.10;;;;;;;7.78;78.86;99338.25;4967414;28;20054;-42
2022/09/07 02:10:28;;;;;;;3.10;2.10;;;;;;;7.57;79.19;99300.91;4970721;28;20046;-42
2022/09/07 02:13:09;;;;;;;4.47;2.28;;;;;;;7.80;79.25;99333.88;4949289;28;20042;-42
2022/09/07 02:15:42;;;;;;;4.43;2.00;;;;;;;7.87;79.09;99331.97;4966953;28;20038;-44
2022/09/07 02:18:09;;;;;;;3.58;2.15;;;;;;;7.69;79.04;99306.63;4968979;28;20042;-44
2022/09/07 02:20:37;;;;;;;3.22;2.10;;;;;;;7.85;79.31;99326.81;4969173;28;20117;-44
2022/09/07 02:23:13;;;;;;;7.30;2.50;;;;;;;7.71;79.36;99305.69;4967908;28;20155;-42
2022/09/07 02:25:46;;;;;;;3.72;1.98;;;;;;;7.86;79.27;99328.50;4969105;28;20136;-45
2022/09/07 02:28:15;;;;;;;5.68;2.40;;;;;;;7.83;79.22;99326.03;4948544;28;20048;-43
2022/09/07 02:30:41;;;;;;;3.75;1.90;;;;;;;7.78;79.84;99334.81;4949772;28;20521;-43
2022/09/07 02:33:07;;;;;;;4.63;2.28;;;;;;;7.58;80.36;99299.16;4963388;28;20054;-47
2022/09/07 02:35:33;;;;;;;4.47;2.30;;;;;;;7.77;80.10;99325.34;4970530;28;20043;-43
2022/09/07 02:38:04;;;;;;;5.65;2.05;;;;;;;7.82;80.13;99323.47;4968573;28;20057;-43
2022/09/07 02:40:30;;;;;;;5.35;2.35;;;;;;;7.82;80.13;99326.91;4969646;28;20182;-44
2022/09/07 02:42:59;;;;;;;4.15;1.75;;;;;;;7.88;80.17;99326.75;4966751;28;20429;-47
2022/09/07 02:45:34;;;;;;;3.97;2.10;;;;;;;7.89;80.09;99333.63;4958201;28;20054;-45
2022/09/07 02:48:30;;;;;;;3.22;1.90;;;;;;;7.95;79.92;99330.84;4969920;28;20070;-43
2022/09/07 02:51:16;;;;;;;4.32;1.77;;;;;;;7.88;80.32;99323.31;4968246;28;20066;-44
2022/09/07 02:53:58;;;;;;;5.57;2.20;;;;;;;7.78;80.34;99314.13;4970157;28;20042;-43
2022/09/07 02:57:05;;;;;;;4.20;2.00;;;;;;;7.80;80.57;99309.75;4967495;28;20580;-44
2022/09/07 02:59:34;;;;;;;3.53;2.05;;;;;;;7.82;80.41;99310.53;4913096;29;20039;-44
2022/09/07 03:02:05;;;;;;;3.90;2.13;;;;;;;7.78;80.57;99311.53;4961720;28;20546;-44
2022/09/07 03:04:42;;;;;;;2.90;1.70;;;;;;;7.81;80.93;99314.00;4950566;28;20175;-43
2022/09/07 03:07:15;;;;;;;3.50;2.15;;;;;;;7.78;80.71;99308.94;4967348;28;20889;-45
2022/09/07 03:09:45;;;;;;;2.83;1.95;;;;;;;7.77;81.27;99309.81;4966893;28;20518;-43
2022/09/07 03:12:11;;;;;;;3.95;2.20;;;;;;;7.65;81.27;99279.97;4936361;28;20070;-45
2022/09/07 03:14:42;;;;;;;5.32;2.40;;;;;;;7.89;80.95;99317.25;4952506;28;20126;-44
2022/09/07 03:17:08;;;;;;;3.58;2.47;;;;;;;7.89;80.98;99309.47;4969506;28;20125;-42
2022/09/07 03:19:35;;;;;;;3.85;2.15;;;;;;;7.80;81.38;99304.59;4968580;28;20522;-43
2022/09/07 03:22:01;;;;;;;2.97;1.80;;;;;;;7.80;82.03;99313.16;4967582;28;20549;-46
2022/09/07 03:24:27;;;;;;;4.32;2.20;;;;;;;7.76;82.60;99298.63;4969347;28;20043;-44
2022/09/07 03:26:53;;;;;;;5.65;2.22;;;;;;;7.79;82.51;99295.97;4968633;28;20046;-42
2022/09/07 03:29:19;;;;;;;5.20;2.28;;;;;;;7.81;82.70;99288.97;4968127;28;20455;-44
2022/09/07 03:31:45;;;;;;;5.38;2.40;;;;;;;7.82;82.66;99300.19;4968470;28;20454;-42
2022/09/07 03:34:11;;;;;;;3.42;2.22;;;;;;;7.81;82.89;99296.75;4967892;28;20542;-45
2022/09/07 03:36:37;;;;;;;2.92;1.98;;;;;;;7.81;82.85;99282.97;4969679;28;20537;-45
2022/09/07 03:39:05;;;;;;;3.78;2.28;;;;;;;7.81;83.04;99288.13;4967923;28;20039;-43
2022/09/07 03:41:31;;;;;;;4.60;2.10;;;;;;;7.80;83.06;99292.47;4969281;28;20133;-42
2022/09/07 03:44:04;;;;;;;4.00;2.50;;;;;;;7.82;83.13;99292.41;4967965;28;20066;-41
2022/09/07 03:46:30;;;;;;;3.30;1.98;;;;;;;7.86;82.49;99294.88;4966768;28;20047;-43
2022/09/07 03:48:56;;;;;;;3.42;2.03;;;;;;;7.79;83.22;99284.75;4969065;28;20424;-41
2022/09/07 03:51:22;;;;;;;3.72;2.22;;;;;;;7.79;83.66;99283.03;4964130;28;20499;-41
2022/09/07 03:53:50;;;;;;;5.18;2.15;;;;;;;7.75;83.27;99283.97;4970435;28;20038;-44
2022/09/07 03:56:18;;;;;;;2.78;2.05;;;;;;;7.83;83.21;99286.38;4955612;28;20506;-47
2022/09/07 03:58:45;;;;;;;2.47;1.90;;;;;;;7.65;82.84;99262.72;4972983;28;20597;-44
2022/09/07 04:01:14;;;;;;;5.85;2.30;;;;;;;7.81;83.15;99288.13;4972018;28;20039;-44
2022/09/07 04:03:40;;;;;;;;;;;;;;;7.82;83.38;99290.69;4972259;28;20042;-48
2022/09/07 04:06:06;;;;;;;5.20;2.33;;;;;;;7.76;82.99;99290.88;4971941;28;19964;-47
2022/09/07 04:08:34;;;;;;;2.70;1.52;;;;;;;7.69;83.21;99284.19;4970325;28;20039;-43
2022/09/07 04:11:01;;;;;;;4.10;2.05;;;;;;;7.36;84.22;99234.28;4972881;28;20051;-44
2022/09/07 04:13:28;;;;;;;3.88;2.72;;;;;;;7.63;84.40;99284.38;4972853;28;20112;-42
2022/09/07 04:15:54;;;;;;;5.10;2.50;;;;;;;7.67;84.54;99280.78;4970440;28;20430;-42
2022/09/07 04:18:21;;;;;;;3.47;2.33;;;;;;;7.72;84.30;99275.47;4972595;28;20450;-42
2022/09/07 04:20:49;;;;;;;3.08;2.30;;;;;;;7.83;84.01;99286.38;4971236;28;20050;-42
2022/09/07 04:23:16;;;;;;;3.35;2.20;;;;;;;7.83;84.08;99287.22;4970737;28;20458;-45
2022/09/07 04:25:49;;;;;;;4.00;2.40;;;;;;;7.86;84.16;99288.84;4971407;28;20124;-41
2022/09/07 04:28:16;;;;;;;3.22;2.25;;;;;;;7.86;84.22;99274.16;4953724;28;20039;-45
2022/09/07 04:30:42;;;;;;;4.70;2.58;;;;;;;7.91;84.25;99269.69;4970064;28;20093;-45
2022/09/07 04:33:09;;;;;;;5.70;3.00;;;;;;;8.04;83.79;99271.03;4971927;28;20466;-43
2022/09/07 04:35:36;;;;;;;5.47;2.60;;;;;;;8.18;83.31;99282.69;4955965;28;20430;-41
2022/09/07 04:38:02;;;;;;;7.22;3.60;;;;;;;8.38;82.90;99282.94;4958241;28;20074;-44
2022/09/07 04:40:29;;;;;;;6.03;2.47;;;;;;;8.66;81.96;99276.00;4971613;28;20058;-44
2022/09/07 04:42:54;;;;;;;4.47;2.60;;;;;;;8.89;80.70;99272.63;4970066;28;20522;-44
2022/09/07 04:45:20;;;;;;;3.90;2.47;;;;;;;8.98;79.90;99280.09;4969808;28;20038;-45
2022/09/07 04:47:47;;;;;;;4.90;2.42;;;;;;;9.01;79.67;99269.59;4970116;28;20765;-43
2022/09/07 04:50:15;;;;;;;2.20;1.70;;;;;;;9.10;78.73;99268.44;4971868;28;20047;-44
2022/09/07 04:52:42;;;;;;;3.70;2.42;;;;;;;9.02;78.37;99279.06;4968933;28;20073;-44
2022/09/07 04:55:08;;;;;;;6.32;2.90;;;;;;;9.03;78.15;99265.22;4970719;28;20046;-43
2022/09/07 04:57:34;;;;;;;4.80;2.53;;;;;;;9.11;77.77;99264.94;4967685;28;20046;-43
2022/09/07 05:00:00;;;;;;;3.88;2.30;;;;;;;9.20;77.65;99259.44;4969444;28;20055;-42
2022/09/07 05:02:26;;;;;;;4.88;2.38;;;;;;;9.31;77.30;99262.50;4970380;28;20041;-44
2022/09/07 05:04:52;;;;;;;2.15;1.83;;;;;;;9.27;76.53;99259.16;4958533;28;20483;-42
2022/09/07 05:07:17;;;;;;;3.40;2.30;;;;;;;9.13;76.88;99253.63;4971337;28;20034;-46
2022/09/07 05:09:44;;;;;;;7.03;2.63;;;;;;;9.13;76.67;99271.78;4971458;28;20052;-46
2022/09/07 05:12:10;;;;;;;5.45;2.10;;;;;;;9.22;76.57;99263.66;4970206;28;20143;-44
2022/09/07 05:14:35;;;;;;;3.15;2.25;;;;;;;9.23;76.37;99270.53;4970142;28;20171;-43
2022/09/07 05:17:02;;;;;;;6.05;2.30;;;;;;;9.27;76.35;99266.94;4971538;28;20049;-45
2022/09/07 05:19:28;;;;;;;3.83;2.38;;;;;;;9.24;75.97;99263.63;4963485;28;20047;-45
2022/09/07 05:21:55;;;;;;;7.60;2.53;;;;;;;9.30;75.98;99266.84;4970580;28;20062;-41
2022/09/07 05:24:21;;;;;;;6.18;2.30;;;;;;;9.34;75.95;99281.41;4953410;28;20419;-47
2022/09/07 05:26:47;;;;;;;6.15;2.97;;;;;;;9.41;75.75;99271.66;4971245;28;20045;-43
2022/09/07 05:29:13;;;;;;;4.75;2.60;;;;;;;9.61;75.30;99273.50;4970954;28;20713;-46
2022/09/07 05:31:39;;;;;;;3.55;2.45;;;;;;;9.68;74.72;99275.81;4969963;28;20038;-44
2022/09/07 05:34:05;;;;;;;3.22;2.10;;;;;;;9.79;74.35;99263.28;4968493;28;20467;-45
2022/09/07 05:36:31;;;;;;;3.45;2.17;;;;;;;9.79;73.46;99252.03;4970025;28;20047;-43
2022/09/07 05:38:58;;;;;;;4.53;2.45;;;;;;;9.86;73.48;99250.91;4966018;28;20049;-44
2022/09/07 05:41:25;;;;;;;5.10;2.72;;;;;;;10.02;73.55;99248.56;4969384;28;20416;-42
2022/09/07 05:43:53;;;;;;;8.85;3.08;;;;;;;10.04;72.33;99233.78;4970217;28;20039;-45
2022/09/07 05:46:19;;;;;;;5.50;2.40;;;;;;;10.15;72.37;99255.81;4970784;28;20043;-44
2022/09/07 05:48:45;;;;;;;6.30;2.47;;;;;;;10.06;72.71;99252.72;4968867;28;20569;-45
2022/09/07 05:51:12;;;;;;;4.65;2.35;;;;;;;9.89;72.35;99255.97;4952480;28;20090;-44
2022/09/07 05:53:40;;;;;;;3.85;2.20;;;;;;;9.61;72.92;99216.41;4969014;28;20043;-43
2022/09/07 05:56:06;;;;;;;5.05;2.58;;;;;;;9.68;73.58;99255.03;4968055;28;20073;-43
2022/09/07 05:58:33;;;;;;;6.28;2.35;;;;;;;9.95;73.50;99257.50;4968827;28;20403;-43
2022/09/07 06:01:02;;;;;;;4.78;2.50;;;;;;;10.25;72.34;99258.09;4967734;28;20188;-44
2022/09/07 06:03:27;;;;;;;4.05;2.30;;;;;;;10.73;70.59;99256.06;4969467;28;20043;-45
2022/09/07 06:06:04;;;;;;;4.05;2.72;;;;;;;11.09;70.61;99247.63;4969012;28;20319;-45
2022/09/07 06:08:31;;;;;;;4.00;2.58;;;;;;;11.68;67.85;99250.16;4960820;28;20145;-46
2022/09/07 06:10:58;;;;;;;4.47;1.95;;;;;;;12.50;64.84;99249.75;4970625;28;20041;-42
2022/09/07 06:13:24;;;;;;;4.95;2.72;;;;;;;12.16;64.20;99198.41;4968990;28;20505;-45
2022/09/07 06:15:50;;;;;;;5.60;2.30;;;;;;;13.51;62.30;99248.91;4963449;28;20431;-45
2022/09/07 06:18:16;;;;;;;3.67;2.15;;;;;;;14.29;58.96;99240.22;4968981;28;20073;-46
2022/09/07 06:20:42;;;;;;;2.70;1.52;;;;;;;14.07;58.45;99245.00;4968913;28;20579;-46
2022/09/07 06:23:08;;;;;;;3.13;2.40;;;;;;;13.48;58.94;99243.00;4966995;28;20047;-44
2022/09/07 06:25:33;;;;;;;5.80;2.25;;;;;;;12.89;59.29;99219.97;4967404;28;20053;-48
2022/09/07 06:27:59;;;;;;;3.63;2.17;;;;;;;12.82;60.40;99253.38;4967620;28;20133;-45
2022/09/07 06:30:25;;;;;;;6.82;2.70;;;;;;;13.00;60.04;99234.16;4952452;28;20513;-45
2022/09/07 06:32:51;;;;;;;4.90;3.05;;;;;;;14.61;57.35;99229.72;4967190;28;20046;-45
2022/09/07 06:35:17;;;;;;;3.45;2.15;;;;;;;15.93;54.13;99222.50;4947984;28;20511;-49
2022/09/07 06:37:43;;;;;;;3.63;2.80;;;;;;;17.03;50.71;99226.63;4962504;28;20070;-42
2022/09/07 06:40:10;;;;;;;7.10;2.13;;;;;;;18.38;48.96;99227.50;4968391;28;20434;-41
2022/09/07 06:42:37;;;;;;;5.13;2.30;;;;;;;18.47;47.88;99226.88;4966721;28;20046;-43
2022/09/07 06:45:03;;;;;;;2.72;2.33;;;;;;;16.76;48.47;99189.94;4966483;28;20035;-47
2022/09/07 06:47:30;;;;;;;3.40;1.80;;;;;;;15.94;50.35;99234.69;4966451;28;20827;-45
2022/09/07 06:49:55;;;;;;;2.83;2.17;;;;;;;15.10;51.42;99235.53;4966607;28;20130;-45
2022/09/07 06:52:21;;;;;;;3.03;2.17;;;;;;;14.70;52.65;99234.44;4966047;28;20050;-46
2022/09/07 06:54:47;;;;;;;5.88;2.50;;;;;;;15.49;51.40;99221.81;4965392;28;20438;-46
2022/09/07 06:57:13;;;;;;;6.55;2.25;;;;;;;16.04;50.03;99233.16;4967912;28;20050;-45
2022/09/07 06:59:39;;;;;;;4.80;2.40;;;;;;;16.28;50.06;99233.34;4961584;28;20054;-43
2022/09/07 07:02:06;;;;;;;6.07;2.05;;;;;;;17.92;46.71;99231.81;4967146;28;20194;-44
2022/09/07 07:04:32;;;;;;;4.80;2.08;;;;;;;18.88;44.37;99228.22;4955066;28;20339;-46
2022/09/07 07:06:57;;;;;;;4.13;1.92;;;;;;;19.74;42.59;99226.75;4969113;28;20050;-45
2022/09/07 07:09:23;;;;;;;5.22;2.50;;;;;;;20.57;40.75;99220.91;4966775;28;20042;-47
2022/09/07 07:11:49;;;;;;;5.13;2.25;;;;;;;20.32;40.50;99223.88;4967078;28;20039;-43
2022/09/07 07:14:25;;;;;;;9.77;2.40;;;;;;;20.49;40.86;99216.28;4965207;28;20510;-47
2022/09/07 07:16:51;;;;;;;3.38;1.70;;;;;;;20.91;39.62;99203.94;4951930;28;20047;-45
2022/09/07 07:19:17;;;;;;;3.10;1.80;;;;;;;19.61;40.31;99198.84;4966412;28;20043;-46
2022/09/07 07:21:43;;;;;;;3.45;2.25;;;;;;;18.85;41.93;99224.00;4967578;28;20109;-45
2022/09/07 07:24:09;;;;;;;2.50;2.00;;;;;;;18.56;42.18;99220.94;4966730;28;20609;-45
2022/09/07 07:26:35;;;;;;;4.10;2.00;;;;;;;17.32;44.14;99214.94;4967910;28;20065;-47
2022/09/07 07:29:01;;;;;;;2.60;1.80;;;;;;;16.67;45.12;99206.31;4967012;28;20066;-50
2022/09/07 07:31:27;;;;;;;3.40;1.52;;;;;;;16.03;46.11;99193.91;4968173;28;20051;-50
2022/09/07 07:33:53;;;;;;;1.88;1.40;;;;;;;15.67;47.91;99218.06;4967524;28;20463;-49
2022/09/07 07:36:24;;;;;;;2.97;2.08;;;;;;;16.29;46.59;99210.59;4951633;28;20109;-48
2022/09/07 07:38:51;;;;;;;4.93;2.17;;;;;;;16.64;46.34;99203.91;4967599;28;20097;-49
2022/09/07 07:41:18;;;;;;;5.32;1.65;;;;;;;17.04;44.92;99190.69;4950691;28;20554;-51
2022/09/07 07:43:45;;;;;;;4.75;1.90;;;;;;;16.03;46.61;99207.03;4967547;28;20042;-52
2022/09/07 07:46:17;;;;;;;2.67;1.45;;;;;;;15.95;47.31;99220.66;4968483;28;20035;-48
2022/09/07 07:48:46;;;;;;;4.50;2.20;;;;;;;16.98;45.41;99212.97;4966880;28;20039;-47
2022/09/07 07:51:12;;;;;;;3.22;1.48;;;;;;;16.32;46.17;99215.66;4968584;28;20487;-48
2022/09/07 07:53:40;;;;;;;1.88;1.30;;;;;;;16.05;46.52;99203.38;4967956;28;20133;-47
2022/09/07 07:56:07;;;;;;;2.70;1.80;;;;;;;16.07;47.10;99195.41;4967735;28;20043;-46
2022/09/07 07:58:34;;;;;;;4.95;1.65;;;;;;;16.75;45.87;99204.00;4968402;28;20048;-48
2022/09/07 08:01:02;;;;;;;2.83;1.65;;;;;;;16.15;46.63;99203.63;4968625;28;20097;-49
2022/09/07 08:03:29;;;;;;;2.00;1.80;;;;;;;16.24;46.70;99200.41;4968457;28;20078;-48
2022/09/07 08:05:55;;;;;;;2.97;1.50;;;;;;;16.23;46.19;99188.22;4968664;28;20129;-49
2022/09/07 08:08:22;;;;;;;3.05;1.40;;;;;;;16.70;46.01;99187.72;4951040;28;20049;-49
2022/09/07 08:10:48;;;;;;;4.00;1.67;;;;;;;16.76;44.97;99187.31;4968361;28;20558;-45
2022/09/07 08:13:15;;;;;;;3.03;1.60;;;;;;;16.60;45.09;99189.28;4950554;28;20050;-50
2022/09/07 08:15:44;;;;;;;2.20;1.50;;;;;;;15.84;46.42;99181.16;4967437;28;20041;-47
2022/09/07 08:18:11;;;;;;;2.10;1.48;;;;;;;16.44;45.88;99155.31;4968320;28;20043;-50
2022/09/07 08:20:40;;;;;;;3.00;1.40;;;;;;;18.29;42.50;99185.25;4968500;28;20045;-48
2022/09/07 08:23:07;;;;;;;2.92;1.83;;;;;;;19.56;40.34;99148.25;4950491;28;20137;-48
2022/09/07 08:25:36;;;;;;;3.05;1.60;;;;;;;19.97;39.73;99173.94;4968083;28;20043;-52
2022/09/07 08:28:02;;;;;;;2.22;1.45;;;;;;;21.11;37.84;99170.50;4969108;28;20038;-49
2022/09/07 08:30:28;;;;;;;2.38;1.58;;;;;;;20.71;37.51;99171.25;4966894;28;20129;-50
2022/09/07 08:32:54;;;;;;;2.50;1.60;;;;;;;20.01;38.24;99163.00;4968162;28;20137;-45
2022/09/07 08:35:20;;;;;;;4.72;1.73;;;;;;;19.66;38.44;99157.94;4968344;28;20042;-46
2022/09/07 08:37:46;;;;;;;2.72;1.52;;;;;;;19.37;39.32;99162.00;4968350;28;20038;-48
2022/09/07 08:40:15;;;;;;;3.05;1.60;;;;;;;19.57;38.76;99163.97;4968952;28;20066;-45
2022/09/07 08:43:06;;;;;;;1.58;1.33;;;;;;;20.77;37.17;99161.16;4969635;28;20050;-47
2022/09/07 08:45:35;;;;;;;6.45;1.75;;;;;;;20.94;36.26;99163.16;4971528;28;20042;-48
2022/09/07 08:48:03;;;;;;;1.90;1.25;;;;;;;19.78;37.00;99169.31;4968967;28;20429;-53
2022/09/07 08:50:37;;;;;;;3.90;1.90;;;;;;;18.38;39.30;99156.44;4970199;28;20042;-46
2022/09/07 08:53:13;;;;;;;2.80;1.55;;;;;;;19.28;38.30;99157.47;4969393;28;20804;-46
2022/09/07 08:56:00;;;;;;;2.22;1.70;;;;;;;21.20;36.05;99164.47;4967829;28;20034;-49
2022/09/07 08:58:33;;;;;;;4.32;1.58;;;;;;;22.00;34.14;99156.50;4971435;28;20045;-50
2022/09/07 09:00:59;;;;;;;2.65;1.50;;;;;;;21.79;33.87;99142.50;4970173;28;20784;-51
2022/09/07 09:03:27;;;;;;;5.28;1.63;;;;;;;23.59;31.38;99159.31;4969808;28;20582;-49
2022/09/07 09:06:07;;;;;;;3.70;1.50;;;;;;;22.85;31.32;99150.50;4971872;28;20050;-49
2022/09/07 09:08:48;;;;;;;2.20;1.15;;;;;;;21.56;31.93;99155.16;4970483;28;20074;-53
2022/09/07 09:11:39;;;;;;;3.05;1.27;;;;;;;19.55;34.13;99126.31;4970483;28;20431;-47
2022/09/07 09:14:28;;;;;;;4.03;1.42;;;;;;;18.55;35.86;99132.38;4971270;28;20031;-47
2022/09/07 09:16:59;;;;;;;3.30;1.33;;;;;;;18.34;36.39;99155.00;4971607;28;20054;-46
2022/09/07 09:19:43;;;;;;;1.30;1.10;;;;;;;17.73;37.25;99159.50;4971188;28;20085;-49
2022/09/07 09:22:16;;;;;;;2.55;1.13;;;;;;;17.40;37.68;99142.63;4964755;28;20779;-44
2022/09/07 09:24:48;;;;;;;4.13;1.40;;;;;;;17.73;38.03;99145.53;4950740;28;20408;-46
2022/09/07 09:27:14;;;;;;;2.13;1.20;;;;;;;17.92;37.77;99145.84;4952480;28;20051;-48
2022/09/07 09:29:40;;;;;;;1.08;0.98;;;;;;;17.35;37.83;99148.22;4969176;28;20093;-45
2022/09/07 09:32:40;;;;;;;4.25;1.25;;;;;;;16.71;39.41;99142.16;4969489;28;20479;-46
2022/09/07 09:35:13;;;;;;;1.58;1.15;;;;;;;16.85;39.13;99146.50;4971638;28;20133;-53
2022/09/07 09:37:40;;;;;;;4.35;1.20;;;;;;;17.82;37.95;99144.00;4972833;28;20133;-46
2022/09/07 09:40:18;;;;;;;3.95;1.38;;;;;;;18.79;36.63;99128.84;4968911;28;20142;-47
2022/09/07 09:42:44;;;;;;;3.83;1.25;;;;;;;19.12;35.80;99120.94;4952642;28;20042;-47
2022/09/07 09:45:31;;;;;;;4.88;1.20;;;;;;;18.21;37.10;99141.09;4970350;28;20034;-49
2022/09/07 09:47:57;;;;;;;6.00;1.45;;;;;;;17.75;38.14;99147.06;4968890;28;20043;-47
2022/09/07 09:50:31;;;;;;;4.35;1.00;;;;;;;16.94;39.04;99124.84;4969803;28;20043;-46
2022/09/07 09:52:57;;;;;;;0.73;0.70;;;;;;;16.56;40.07;99142.31;4969165;28;20090;-53
2022/09/07 09:55:32;;;;;;;1.80;1.00;;;;;;;15.96;41.57;99142.84;4970179;28;20070;-45
2022/09/07 09:58:03;;;;;;;1.40;1.08;;;;;;;16.12;41.78;99140.06;4965714;28;20074;-47
2022/09/07 10:00:31;;;;;;;1.40;1.20;;;;;;;15.90;42.07;99146.69;4935043;28;20830;-49
2022/09/07 10:03:03;;;;;;;4.20;1.27;;;;;;;15.66;42.69;99151.69;4952796;28;20043;-48
2022/09/07 10:05:36;;;;;;;3.63;1.13;;;;;;;15.19;43.83;99153.81;4969314;28;20078;-45
2022/09/07 10:08:05;;;;;;;3.65;1.23;;;;;;;14.98;44.52;99152.50;4968223;28;20121;-51
2022/09/07 10:10:31;;;;;;;1.30;1.00;;;;;;;14.78;45.82;99157.16;4968949;28;20039;-46
2022/09/07 10:12:57;;;;;;;2.00;1.00;;;;;;;14.85;46.34;99160.25;4970065;28;20043;-47
2022/09/07 10:15:35;;;;;;;1.30;0.90;;;;;;;14.93;46.33;99151.94;4968392;28;20524;-45
2022/09/07 10:18:04;;;;;;;3.17;1.00;;;;;;;14.94;46.18;99127.44;4953106;28;20439;-45
2022/09/07 10:20:37;;;;;;;2.22;0.85;;;;;;;14.67;46.51;99154.34;4952387;28;20046;-47
2022/09/07 10:23:05;;;;;;;1.85;1.00;;;;;;;14.59;47.14;99147.88;4969784;28;20045;-46
2022/09/07 10:25:36;;;;;;;1.40;0.52;;;;;;;14.42;46.85;99164.56;4969569;28;20046;-46
2022/09/07 10:28:12;;;;;;;0.85;0.85;;;;;;;14.04;47.53;99158.03;4968119;28;20039;-45
2022/09/07 10:30:43;;;;;;;1.13;0.93;;;;;;;13.72;48.29;99154.63;4967917;28;20130;-45
2022/09/07 10:33:17;;;;;;;3.60;1.20;;;;;;;13.48;49.11;99149.00;4969417;28;20038;-48
2022/09/07 10:35:57;;;;;;;2.28;1.10;;;;;;;13.44;49.91;99150.09;4968051;28;20039;-45
2022/09/07 10:38:24;;;;;;;1.88;1.20;;;;;;;13.44;50.13;99134.41;4968290;28;20044;-48
2022/09/07 10:41:06;;;;;;;1.80;1.27;;;;;;;13.43;51.19;99151.00;4966711;28;20051;-49
2022/09/07 10:43:37;;;;;;;2.13;1.13;;;;;;;13.21;51.93;99153.09;4967835;28;20043;-51
2022/09/07 10:46:03;;;;;;;1.13;0.80;;;;;;;12.98;53.29;99154.28;4967947;28;20042;-44
2022/09/07 10:48:37;;;;;;;1.77;1.00;;;;;;;12.70;54.31;99162.69;4968539;28;20054;-46
2022/09/07 10:51:08;;;;;;;2.80;0.90;;;;;;;12.55;55.21;99163.47;4969958;28;20569;-48
2022/09/07 10:53:56;;;;;;;3.33;1.55;;;;;;;12.37;56.79;99160.00;4952124;28;20063;-44
2022/09/07 10:56:27;;;;;;;1.50;1.00;;;;;;;12.34;57.31;99170.59;4950714;28;20035;-45
2022/09/07 10:59:24;;;;;;;2.47;0.82;;;;;;;12.13;58.57;99164.69;4951008;28;20042;-47
2022/09/07 11:02:38;;;;;;;1.98;1.30;;;;;;;11.76;59.99;99164.78;4979884;28;20049;-45
2022/09/07 11:05:25;;;;;;;1.50;1.13;;;;;;;11.52;61.66;99160.66;4963581;28;20055;-49
2022/09/07 11:08:00;;;;;;;1.67;0.98;;;;;;;11.39;62.53;99171.66;4967119;28;20047;-48
2022/09/07 11:10:41;;;;;;;2.05;1.20;;;;;;;11.13;64.67;99165.94;4967392;28;20125;-47
2022/09/07 11:13:10;;;;;;;2.38;1.20;;;;;;;10.86;67.16;99181.00;4967672;28;20039;-46
2022/09/07 11:16:05;;;;;;;1.73;1.30;;;;;;;10.43;70.43;99156.84;4972146;28;20097;-47
2022/09/07 11:18:44;;;;;;;2.17;1.17;;;;;;;10.39;71.97;99175.22;4966237;28;20153;-47
2022/09/07 11:21:16;;;;;;;1.70;1.30;;;;;;;10.22;74.04;99175.06;4951115;28;20411;-45
2022/09/07 11:23:51;;;;;;;3.83;1.50;;;;;;;10.01;75.45;99185.38;4967339;28;20085;-50
2022/09/07 11:26:36;;;;;;;2.63;1.45;;;;;;;9.48;76.57;99129.53;4948842;28;20054;-50
2022/09/07 11:29:14;;;;;;;3.08;1.30;;;;;;;9.67;77.58;99172.06;4966875;28;20039;-45
2022/09/07 11:31:56;;;;;;;1.90;1.30;;;;;;;9.42;77.53;99151.38;4968676;28;20038;-47
2022/09/07 11:34:39;;;;;;;5.10;1.10;;;;;;;9.52;78.31;99151.91;4967095;28;20043;-46
2022/09/07 11:37:09;;;;;;;1.23;1.13;;;;;;;9.51;78.87;99165.75;4951874;28;20046;-46
2022/09/07 11:39:59;;;;;;;3.13;1.60;;;;;;;9.50;79.22;99161.47;4967802;28;20141;-44
2022/09/07 11:42:38;;;;;;;;;;;;;;;9.57;79.73;99168.97;4970193;28;20046;-47
2022/09/07 11:45:22;;;;;;;3.83;1.55;;;;;;;9.56;78.85;99159.50;4967812;28;20431;-44
2022/09/07 11:47:55;;;;;;;1.90;1.10;;;;;;;9.62;79.25;99158.41;4951519;28;20053;-46
2022/09/07 11:50:22;;;;;;;6.90;1.90;;;;;;;9.51;79.65;99137.22;4967119;28;20061;-47
2022/09/07 11:52:55;;;;;;;3.88;1.90;;;;;;;9.43;79.31;99115.91;4969250;28;20070;-52
2022/09/07 11:55:24;;;;;;;3.05;2.00;;;;;;;9.43;79.27;99118.50;4969049;28;20479;-51